Terminal Aerodrome Forecast
Issued by NWS Shreveport, LA

Home | Current Version | Previous Version | Text Only | Print | Product List | Glossary On
Versions: 1 2 3 4 5 6 7 8 9 10 11 12 13 14 15 16
244
FTUS44 KSHV 270550
TAFSHV
TAF
KSHV 270550Z 2706/2806 18010KT P6SM VCTS OVC025CB
     FM270900 16007KT 3SM TSRA BR BKN010 OVC020CB
     FM271800 15006KT P6SM VCSH BKN030 OVC040
     FM272100 16009KT P6SM VCTS BKN025 OVC035CB
     FM280000 15008KT P6SM BKN035 OVC050=

USA.gov is the U.S. government's official web portal to all federal, state and local government web resources and services.